Time;durP1;ratioP1;P1;durP2;ratioP2;P2;SDS_P1;SDS_P2;PMS_P1;PMS_P2;Temp;Humidity;BMP_temperature;BMP_pressure;BME280_temperature;BME280_humidity;BME280_pressure;Samples;Min_cycle;Max_cycle;Signal;HPM_P1;HPM_P2
2022/06/27 00:03:23;;;;;;;4.47;1.70;;;;;;;;;;10297467;28;20023;-60
2022/06/27 00:08:24;;;;;;;4.57;1.75;;;;;;;;;;10303116;28;20031;-59
2022/06/27 00:13:24;;;;;;;3.97;1.42;;;;;;;;;;10306051;28;20378;-60
2022/06/27 00:18:25;;;;;;;4.60;1.77;;;;;;;;;;10306121;28;20305;-57
2022/06/27 00:23:26;;;;;;;2.28;1.52;;;;;;;;;;10316100;28;20039;-58
2022/06/27 00:28:26;;;;;;;2.70;1.50;;;;;;;;;;10294048;28;20422;-58
2022/06/27 00:33:27;;;;;;;2.47;1.40;;;;;;;;;;10308779;28;20084;-57
2022/06/27 00:38:27;;;;;;;4.57;1.73;;;;;;;;;;10292399;28;20484;-59
2022/06/27 00:43:28;;;;;;;6.18;1.75;;;;;;;;;;10324549;28;20269;-58
2022/06/27 00:48:30;;;;;;;1.85;1.45;;;;;;;;;;10312930;28;20407;-58
2022/06/27 00:53:32;;;;;;;5.18;1.85;;;;;;;;;;10314199;28;20034;-58
2022/06/27 00:58:33;;;;;;;3.50;1.90;;;;;;;;;;10297927;28;20398;-60
2022/06/27 01:03:33;;;;;;;2.30;1.20;;;;;;;;;;10299857;28;20037;-59
2022/06/27 01:08:35;;;;;;;6.15;1.77;;;;;;;;;;10310292;28;20101;-60
2022/06/27 01:13:36;;;;;;;3.72;1.33;;;;;;;;;;10296405;28;20034;-60
2022/06/27 01:18:36;;;;;;;3.50;1.58;;;;;;;;;;10312416;28;20411;-58
2022/06/27 01:23:37;;;;;;;2.78;1.50;;;;;;;;;;10304802;28;20385;-59
2022/06/27 01:28:38;;;;;;;4.25;1.60;;;;;;;;;;10304881;28;20053;-59
2022/06/27 01:33:39;;;;;;;3.92;1.50;;;;;;;;;;10296681;28;20110;-59
2022/06/27 01:38:39;;;;;;;1.95;1.30;;;;;;;;;;10306983;28;20046;-60
2022/06/27 01:43:40;;;;;;;3.25;1.42;;;;;;;;;;10322956;28;20058;-58
2022/06/27 01:48:41;;;;;;;2.33;1.40;;;;;;;;;;10317922;28;20062;-58
2022/06/27 01:53:41;;;;;;;3.20;1.10;;;;;;;;;;10303958;28;20042;-59
2022/06/27 01:58:42;;;;;;;1.73;1.25;;;;;;;;;;10311694;28;20568;-58
2022/06/27 02:03:43;;;;;;;2.25;1.13;;;;;;;;;;10306614;28;20050;-59
2022/06/27 02:08:46;;;;;;;2.75;1.33;;;;;;;;;;10326902;28;20497;-60
2022/06/27 02:13:46;;;;;;;2.25;1.40;;;;;;;;;;10297515;28;20069;-59
2022/06/27 02:18:48;;;;;;;3.78;1.52;;;;;;;;;;10308223;28;20038;-59
2022/06/27 02:23:49;;;;;;;1.88;1.30;;;;;;;;;;10329466;28;20429;-59
2022/06/27 02:28:52;;;;;;;2.30;1.30;;;;;;;;;;10297785;28;20031;-58
2022/06/27 02:33:54;;;;;;;2.83;1.48;;;;;;;;;;10300337;28;20034;-58
2022/06/27 02:38:55;;;;;;;1.33;1.15;;;;;;;;;;10293884;28;20031;-60
2022/06/27 02:44:06;;;;;;;3.17;1.30;;;;;;;;;;10299773;28;20073;-59
2022/06/27 02:49:08;;;;;;;4.07;1.63;;;;;;;;;;10300335;28;20033;-59
2022/06/27 02:54:24;;;;;;;1.60;1.45;;;;;;;;;;10305369;28;20394;-59
2022/06/27 02:59:32;;;;;;;2.53;1.38;;;;;;;;;;10307400;28;20019;-59
2022/06/27 03:04:33;;;;;;;2.35;1.15;;;;;;;;;;10305814;28;20364;-58
2022/06/27 03:09:34;;;;;;;5.47;1.63;;;;;;;;;;10313720;28;20019;-58
2022/06/27 03:14:35;;;;;;;6.53;1.67;;;;;;;;;;10306873;28;20038;-59
2022/06/27 03:19:35;;;;;;;5.45;1.70;;;;;;;;;;10301234;28;20485;-59
2022/06/27 03:24:36;;;;;;;6.68;1.40;;;;;;;;;;10311382;28;20038;-58
2022/06/27 03:29:37;;;;;;;8.85;1.40;;;;;;;;;;10312307;28;20058;-59
2022/06/27 03:34:38;;;;;;;4.53;2.10;;;;;;;;;;10310554;28;20035;-57
2022/06/27 03:39:38;;;;;;;7.88;1.48;;;;;;;;;;10303738;28;20022;-58
2022/06/27 03:44:39;;;;;;;3.15;1.60;;;;;;;;;;10307678;28;20027;-58
2022/06/27 03:50:00;;;;;;;2.08;1.25;;;;;;;;;;10306178;28;20038;-59
2022/06/27 03:55:00;;;;;;;4.82;1.33;;;;;;;;;;10301437;28;20411;-58
2022/06/27 04:00:01;;;;;;;4.88;1.73;;;;;;;;;;10316172;28;20037;-58
2022/06/27 04:05:03;;;;;;;8.73;1.50;;;;;;;;;;10313371;28;20487;-59
2022/06/27 04:10:04;;;;;;;6.40;1.30;;;;;;;;;;10306569;28;20537;-60
2022/06/27 04:15:07;;;;;;;1.55;1.23;;;;;;;;;;10295706;28;20490;-60
2022/06/27 04:20:08;;;;;;;2.05;1.08;;;;;;;;;;10298575;28;20027;-60
2022/06/27 04:25:09;;;;;;;1.45;1.17;;;;;;;;;;10301311;28;20562;-58
2022/06/27 04:30:16;;;;;;;6.95;1.58;;;;;;;;;;10296100;28;20113;-59
2022/06/27 04:35:17;;;;;;;20.73;1.80;;;;;;;;;;10310236;28;20042;-58
2022/06/27 04:40:19;;;;;;;11.38;1.98;;;;;;;;;;10296495;28;20035;-57
2022/06/27 04:45:20;;;;;;;6.60;1.40;;;;;;;;;;10303920;28;20030;-53
2022/06/27 04:50:22;;;;;;;5.38;1.60;;;;;;;;;;10299670;28;20031;-54
2022/06/27 04:55:24;;;;;;;3.53;1.50;;;;;;;;;;10294747;28;20057;-56
2022/06/27 05:00:24;;;;;;;4.30;1.83;;;;;;;;;;10308012;28;20046;-57
2022/06/27 05:05:25;;;;;;;5.65;1.60;;;;;;;;;;10303399;28;20236;-57
2022/06/27 05:10:26;;;;;;;4.32;1.73;;;;;;;;;;10305160;28;20034;-59
2022/06/27 05:15:27;;;;;;;13.20;1.85;;;;;;;;;;10312983;28;20273;-58
2022/06/27 05:20:30;;;;;;;7.90;2.00;;;;;;;;;;10290558;28;20038;-56
2022/06/27 05:25:30;;;;;;;13.48;2.42;;;;;;;;;;10340342;23;20049;-46
2022/06/27 05:30:33;;;;;;;4.10;2.03;;;;;;;;;;10365329;28;20025;-46
2022/06/27 05:35:34;;;;;;;7.40;2.25;;;;;;;;;;10345697;28;20092;-46
2022/06/27 05:40:34;;;;;;;8.88;2.30;;;;;;;;;;10351504;28;20053;-50
2022/06/27 05:45:35;;;;;;;7.30;2.42;;;;;;;;;;10354448;28;20513;-51
2022/06/27 05:50:36;;;;;;;9.77;2.50;;;;;;;;;;10354064;28;20030;-49
2022/06/27 05:55:38;;;;;;;5.05;1.90;;;;;;;;;;10354639;28;20030;-54
2022/06/27 06:00:39;;;;;;;3.90;1.67;;;;;;;;;;10354990;28;20401;-46
2022/06/27 06:05:41;;;;;;;3.33;1.70;;;;;;;;;;10355688;28;20034;-51
2022/06/27 06:10:42;;;;;;;4.90;1.80;;;;;;;;;;10360050;28;20034;-58
2022/06/27 06:15:43;;;;;;;6.63;2.15;;;;;;;;;;10357828;28;20405;-51
2022/06/27 06:20:44;;;;;;;2.67;1.60;;;;;;;;;;10360383;28;20045;-49
2022/06/27 06:25:45;;;;;;;3.10;1.90;;;;;;;;;;10330536;28;20054;-50
2022/06/27 06:30:46;;;;;;;9.90;2.45;;;;;;;;;;10366432;28;20030;-51
2022/06/27 06:35:46;;;;;;;8.80;2.10;;;;;;;;;;10358146;28;20042;-52
2022/06/27 06:40:47;;;;;;;6.65;2.42;;;;;;;;;;10356329;28;20533;-51
2022/06/27 06:45:50;;;;;;;8.00;1.92;;;;;;;;;;10350300;28;20037;-46
2022/06/27 06:50:52;;;;;;;6.45;2.33;;;;;;;;;;10342614;28;20118;-51
2022/06/27 06:55:53;;;;;;;11.10;2.33;;;;;;;;;;10337620;28;20065;-53
2022/06/27 07:00:56;;;;;;;8.15;2.22;;;;;;;;;;10323098;28;20080;-49
2022/06/27 07:05:57;;;;;;;9.63;3.08;;;;;;;;;;10330995;28;20022;-46
2022/06/27 07:10:58;;;;;;;17.25;3.22;;;;;;;;;;10342051;28;20462;-50
2022/06/27 07:15:58;;;;;;;10.52;3.63;;;;;;;;;;10319640;28;20125;-50
2022/06/27 07:21:00;;;;;;;8.18;2.90;;;;;;;;;;10349935;28;20133;-46
2022/06/27 07:26:01;;;;;;;12.43;2.78;;;;;;;;;;10353773;28;20104;-46
2022/06/27 07:31:01;;;;;;;10.65;3.22;;;;;;;;;;10368887;28;20036;-50
2022/06/27 07:36:06;;;;;;;9.30;2.90;;;;;;;;;;10349021;28;20109;-51
2022/06/27 07:41:09;;;;;;;7.13;2.88;;;;;;;;;;10341080;28;20107;-46
2022/06/27 07:46:10;;;;;;;10.13;3.47;;;;;;;;;;10348317;28;20044;-51
2022/06/27 07:51:16;;;;;;;11.48;3.10;;;;;;;;;;10348811;28;20057;-52
2022/06/27 07:56:20;;;;;;;7.70;2.88;;;;;;;;;;10346734;28;20139;-53
2022/06/27 08:01:21;;;;;;;9.45;3.13;;;;;;;;;;10356262;28;20160;-51
2022/06/27 08:06:29;;;;;;;8.02;2.80;;;;;;;;;;10351044;28;20045;-60
2022/06/27 08:11:34;;;;;;;13.73;2.88;;;;;;;;;;10345838;28;20486;-61
2022/06/27 08:16:39;;;;;;;6.65;2.85;;;;;;;;;;10358306;28;20041;-61
2022/06/27 08:21:41;;;;;;;6.95;2.85;;;;;;;;;;10345387;28;20038;-61
2022/06/27 08:26:44;;;;;;;8.40;2.78;;;;;;;;;;10364329;28;20100;-60
2022/06/27 08:31:46;;;;;;;10.45;2.80;;;;;;;;;;10367870;28;20080;-61
2022/06/27 08:36:47;;;;;;;12.23;3.08;;;;;;;;;;10342782;28;20046;-61
2022/06/27 08:41:48;;;;;;;6.57;2.70;;;;;;;;;;10343279;28;20501;-58
2022/06/27 08:46:51;;;;;;;15.18;3.40;;;;;;;;;;10343674;28;20038;-62
2022/06/27 08:51:53;;;;;;;7.97;2.50;;;;;;;;;;10341013;28;20034;-62
2022/06/27 08:56:54;;;;;;;9.30;2.40;;;;;;;;;;10341573;28;20239;-61
2022/06/27 09:01:55;;;;;;;15.77;3.38;;;;;;;;;;10339800;28;20458;-58
2022/06/27 09:06:57;;;;;;;8.20;2.45;;;;;;;;;;10331432;28;20072;-62
2022/06/27 09:12:05;;;;;;;6.45;2.85;;;;;;;;;;10342022;28;20026;-54
2022/06/27 09:17:12;;;;;;;10.65;2.70;;;;;;;;;;10339058;28;20107;-47
2022/06/27 09:22:15;;;;;;;14.88;3.17;;;;;;;;;;10344614;28;20477;-47
2022/06/27 09:27:39;;;;;;;5.68;2.50;;;;;;;;;;10349988;28;20519;-53
2022/06/27 09:32:39;;;;;;;14.75;2.80;;;;;;;;;;10335871;28;20101;-48
2022/06/27 09:38:02;;;;;;;9.68;2.83;;;;;;;;;;10350803;28;20038;-50
2022/06/27 09:43:04;;;;;;;9.38;2.90;;;;;;;;;;10355359;28;20041;-47
2022/06/27 09:48:08;;;;;;;8.20;2.50;;;;;;;;;;10354486;28;20030;-53
2022/06/27 09:53:09;;;;;;;22.40;2.60;;;;;;;;;;10354686;28;20124;-46
2022/06/27 09:58:11;;;;;;;8.90;2.42;;;;;;;;;;10354036;28;20124;-47
2022/06/27 10:03:12;;;;;;;9.57;2.45;;;;;;;;;;10355581;28;20381;-52
2022/06/27 10:08:14;;;;;;;6.25;2.50;;;;;;;;;;10364423;28;20029;-46
2022/06/27 10:13:14;;;;;;;8.98;2.90;;;;;;;;;;10364440;28;20033;-53
2022/06/27 10:18:15;;;;;;;6.78;2.13;;;;;;;;;;10357533;28;20045;-49
2022/06/27 10:23:26;;;;;;;12.40;2.83;;;;;;;;;;10352162;28;20436;-47
2022/06/27 10:28:26;;;;;;;9.02;2.40;;;;;;;;;;10353722;28;20465;-48
2022/06/27 10:33:27;;;;;;;6.93;2.58;;;;;;;;;;10353421;28;20038;-49
2022/06/27 10:38:42;;;;;;;14.75;2.80;;;;;;;;;;10365979;28;20038;-46
2022/06/27 10:43:53;;;;;;;11.80;2.67;;;;;;;;;;10344930;28;20030;-51
2022/06/27 10:48:58;;;;;;;15.25;3.17;;;;;;;;;;10365441;28;20058;-48
2022/06/27 10:54:05;;;;;;;12.07;2.58;;;;;;;;;;10358807;28;20105;-48
2022/06/27 10:59:14;;;;;;;11.82;3.20;;;;;;;;;;10336611;28;20485;-47
2022/06/27 11:04:35;;;;;;;9.63;2.83;;;;;;;;;;10346115;28;21444;-46
2022/06/27 11:09:47;;;;;;;11.88;2.80;;;;;;;;;;10359765;28;20026;-51
2022/06/27 11:14:58;;;;;;;10.02;2.88;;;;;;;;;;10364319;28;20117;-48
2022/06/27 11:20:15;;;;;;;7.60;1.95;;;;;;;;;;10338092;28;20034;-46
2022/06/27 11:25:19;;;;;;;11.07;2.50;;;;;;;;;;10362385;28;20061;-52
2022/06/27 11:35:57;;;;;;;7.00;2.20;;;;;;;;;;10334956;28;20042;-57
2022/06/27 11:41:12;;;;;;;6.85;2.38;;;;;;;;;;10332382;28;20050;-47
2022/06/27 11:46:32;;;;;;;7.40;2.10;;;;;;;;;;10335973;28;20032;-50
2022/06/27 11:51:47;;;;;;;10.48;2.00;;;;;;;;;;10328873;28;20022;-61
2022/06/27 11:56:51;;;;;;;9.73;2.10;;;;;;;;;;10335813;28;20145;-57
2022/06/27 12:01:57;;;;;;;9.65;2.08;;;;;;;;;;10331525;28;20030;-61
2022/06/27 12:07:04;;;;;;;9.40;2.38;;;;;;;;;;10332616;28;20497;-50
2022/06/27 12:12:05;;;;;;;10.05;2.25;;;;;;;;;;10324214;28;20034;-50
2022/06/27 12:17:06;;;;;;;11.20;2.33;;;;;;;;;;10314538;28;20268;-49
2022/06/27 12:22:12;;;;;;;8.75;2.22;;;;;;;;;;10323830;28;20038;-46
2022/06/27 12:27:13;;;;;;;8.32;2.22;;;;;;;;;;10312591;28;20038;-51
2022/06/27 12:32:13;;;;;;;12.70;2.47;;;;;;;;;;10305448;28;20026;-49
2022/06/27 12:37:14;;;;;;;9.13;1.88;;;;;;;;;;10322112;28;20034;-52
2022/06/27 12:42:15;;;;;;;7.00;1.88;;;;;;;;;;10336848;28;20038;-52
2022/06/27 12:47:15;;;;;;;9.13;1.65;;;;;;;;;;10349813;28;20093;-52
2022/06/27 12:52:16;;;;;;;6.65;2.08;;;;;;;;;;10356365;28;20026;-56
2022/06/27 12:57:17;;;;;;;4.18;1.70;;;;;;;;;;10349718;28;20359;-56
2022/06/27 13:02:18;;;;;;;6.05;1.92;;;;;;;;;;10330234;28;20466;-52
2022/06/27 13:07:19;;;;;;;6.95;1.85;;;;;;;;;;10321166;28;20438;-47
2022/06/27 13:12:20;;;;;;;4.90;1.77;;;;;;;;;;10350618;28;20056;-49
2022/06/27 13:17:20;;;;;;;14.13;2.55;;;;;;;;;;10336595;28;20441;-49
2022/06/27 13:22:21;;;;;;;6.38;1.98;;;;;;;;;;10351679;28;20489;-48
2022/06/27 13:27:21;;;;;;;6.55;2.05;;;;;;;;;;10352626;28;20042;-52
2022/06/27 13:32:22;;;;;;;5.22;1.70;;;;;;;;;;10357912;28;20498;-59
2022/06/27 13:37:23;;;;;;;9.48;2.03;;;;;;;;;;10334306;28;20498;-51
2022/06/27 13:42:24;;;;;;;7.38;2.20;;;;;;;;;;10326087;28;20023;-48
2022/06/27 13:47:25;;;;;;;14.32;2.20;;;;;;;;;;10341959;28;20577;-52
2022/06/27 13:52:26;;;;;;;7.22;2.08;;;;;;;;;;10350529;28;20077;-51
2022/06/27 13:57:27;;;;;;;9.38;2.20;;;;;;;;;;10324197;28;20084;-52
2022/06/27 14:02:27;;;;;;;9.80;2.00;;;;;;;;;;10315897;28;20489;-54
2022/06/27 14:07:39;;;;;;;8.63;2.10;;;;;;;;;;10336272;28;20027;-52
2022/06/27 14:12:41;;;;;;;8.43;2.40;;;;;;;;;;10333070;28;20478;-46
2022/06/27 14:17:43;;;;;;;10.50;2.25;;;;;;;;;;10343315;28;20545;-53
2022/06/27 14:22:43;;;;;;;9.20;2.83;;;;;;;;;;10327073;28;20036;-50
2022/06/27 14:27:46;;;;;;;11.88;2.67;;;;;;;;;;10313550;28;20070;-52
2022/06/27 14:32:57;;;;;;;9.05;2.80;;;;;;;;;;10319773;28;20474;-53
2022/06/27 14:37:57;;;;;;;30.02;3.28;;;;;;;;;;10336861;28;20580;-53
2022/06/27 14:42:58;;;;;;;8.55;2.05;;;;;;;;;;10326897;28;20038;-51
2022/06/27 14:47:59;;;;;;;12.88;3.03;;;;;;;;;;10337046;28;20065;-47
2022/06/27 14:52:59;;;;;;;11.00;2.40;;;;;;;;;;10352483;28;20037;-48
2022/06/27 14:58:03;;;;;;;6.40;2.60;;;;;;;;;;10337288;28;20022;-47
2022/06/27 15:03:03;;;;;;;8.13;2.80;;;;;;;;;;10349564;28;20026;-47
2022/06/27 15:08:06;;;;;;;13.68;2.85;;;;;;;;;;10337816;28;20042;-46
2022/06/27 15:13:07;;;;;;;8.45;2.70;;;;;;;;;;10335446;28;20030;-50
2022/06/27 15:18:08;;;;;;;10.48;2.92;;;;;;;;;;10326795;28;20037;-47
2022/06/27 15:23:14;;;;;;;10.00;2.65;;;;;;;;;;10336282;28;20026;-59
2022/06/27 15:28:15;;;;;;;8.40;2.50;;;;;;;;;;10322188;28;20092;-48
2022/06/27 15:33:16;;;;;;;11.23;2.75;;;;;;;;;;10316910;28;20102;-48
2022/06/27 15:38:16;;;;;;;12.40;3.30;;;;;;;;;;10338856;28;20023;-62
2022/06/27 15:43:17;;;;;;;9.82;2.50;;;;;;;;;;10339139;28;20034;-46
2022/06/27 15:48:18;;;;;;;13.52;2.50;;;;;;;;;;10336724;28;20419;-47
2022/06/27 15:53:18;;;;;;;7.78;2.88;;;;;;;;;;10338202;28;20029;-49
2022/06/27 15:58:19;;;;;;;17.90;2.90;;;;;;;;;;10356397;28;20033;-47
2022/06/27 16:03:23;;;;;;;10.85;3.70;;;;;;;;;;10344165;28;20493;-48
2022/06/27 16:08:24;;;;;;;11.93;2.47;;;;;;;;;;10357204;28;20548;-50
2022/06/27 16:13:25;;;;;;;9.00;2.75;;;;;;;;;;10359151;28;20037;-49
2022/06/27 16:18:25;;;;;;;12.68;3.03;;;;;;;;;;10345593;28;20084;-51
2022/06/27 16:23:26;;;;;;;8.80;2.60;;;;;;;;;;10318410;28;20042;-48
2022/06/27 16:28:26;;;;;;;10.60;2.88;;;;;;;;;;10342909;28;20022;-51
2022/06/27 16:33:28;;;;;;;10.00;2.63;;;;;;;;;;10335631;28;20050;-46
2022/06/27 16:38:30;;;;;;;12.57;3.30;;;;;;;;;;10345010;28;20104;-46
2022/06/27 16:43:31;;;;;;;8.57;2.42;;;;;;;;;;10344724;28;20475;-47
2022/06/27 16:48:31;;;;;;;5.47;1.98;;;;;;;;;;10330134;28;20027;-54
2022/06/27 16:53:35;;;;;;;12.63;2.60;;;;;;;;;;10329999;28;20042;-46
2022/06/27 16:58:36;;;;;;;9.40;3.05;;;;;;;;;;10330697;28;20034;-47
2022/06/27 17:03:37;;;;;;;9.15;2.60;;;;;;;;;;10335613;28;20065;-46
2022/06/27 17:08:38;;;;;;;11.25;2.67;;;;;;;;;;10330202;28;20401;-47
2022/06/27 17:13:40;;;;;;;10.90;3.17;;;;;;;;;;10338972;28;20034;-49
2022/06/27 17:18:41;;;;;;;11.73;3.00;;;;;;;;;;10312063;28;20069;-47
2022/06/27 17:23:42;;;;;;;6.63;3.03;;;;;;;;;;10320123;28;20554;-46
2022/06/27 17:28:43;;;;;;;9.23;2.83;;;;;;;;;;10322423;28;20046;-47
2022/06/27 17:33:43;;;;;;;8.02;2.80;;;;;;;;;;10328209;28;20125;-46
2022/06/27 17:38:44;;;;;;;8.82;2.55;;;;;;;;;;10349791;28;20224;-48
2022/06/27 17:43:44;;;;;;;14.80;2.65;;;;;;;;;;10346467;28;20042;-46
2022/06/27 17:48:45;;;;;;;4.78;2.35;;;;;;;;;;10349418;28;20061;-46
2022/06/27 17:53:46;;;;;;;5.40;2.38;;;;;;;;;;10325600;28;20134;-46
2022/06/27 17:58:46;;;;;;;8.73;2.70;;;;;;;;;;10328516;28;20503;-47
2022/06/27 18:03:47;;;;;;;7.38;2.13;;;;;;;;;;10332112;28;20509;-49
2022/06/27 18:08:48;;;;;;;6.85;2.70;;;;;;;;;;10321027;28;20030;-46
2022/06/27 18:13:48;;;;;;;8.80;2.75;;;;;;;;;;10344832;28;20488;-48
2022/06/27 18:18:50;;;;;;;8.35;2.70;;;;;;;;;;10350615;28;20034;-47
2022/06/27 18:23:51;;;;;;;5.43;2.25;;;;;;;;;;10344211;28;20137;-46
2022/06/27 18:28:52;;;;;;;11.32;2.72;;;;;;;;;;10352496;28;20030;-46
2022/06/27 18:33:52;;;;;;;8.18;2.47;;;;;;;;;;10351100;28;20485;-46
2022/06/27 18:38:54;;;;;;;9.75;2.97;;;;;;;;;;10340790;28;20034;-46
2022/06/27 18:43:55;;;;;;;9.93;3.05;;;;;;;;;;10331372;28;20113;-47
2022/06/27 18:48:56;;;;;;;9.45;2.50;;;;;;;;;;10315836;28;20044;-47
2022/06/27 18:53:57;;;;;;;5.97;2.25;;;;;;;;;;10323961;28;20474;-46
2022/06/27 18:58:57;;;;;;;6.72;2.33;;;;;;;;;;10350447;28;20030;-46
2022/06/27 19:03:59;;;;;;;7.13;2.47;;;;;;;;;;10344677;28;20033;-48
2022/06/27 19:09:00;;;;;;;6.55;2.65;;;;;;;;;;10337180;28;20035;-51
2022/06/27 19:14:01;;;;;;;6.93;2.22;;;;;;;;;;10338142;28;20037;-46
2022/06/27 19:19:01;;;;;;;6.13;2.75;;;;;;;;;;10338048;28;20019;-46
2022/06/27 19:24:04;;;;;;;6.15;2.05;;;;;;;;;;10344733;28;20035;-47
2022/06/27 19:29:04;;;;;;;6.72;2.30;;;;;;;;;;10355988;28;20424;-46
2022/06/27 19:34:06;;;;;;;8.90;2.55;;;;;;;;;;10343598;28;20051;-47
2022/06/27 19:39:07;;;;;;;10.40;2.33;;;;;;;;;;10354124;28;20018;-46
2022/06/27 19:44:07;;;;;;;10.02;2.20;;;;;;;;;;10340211;28;20494;-50
2022/06/27 19:49:08;;;;;;;9.48;2.15;;;;;;;;;;10347423;28;20026;-45
2022/06/27 19:54:10;;;;;;;5.20;2.20;;;;;;;;;;10342077;28;20119;-48
2022/06/27 19:59:11;;;;;;;4.07;2.03;;;;;;;;;;10345465;28;20022;-46
2022/06/27 20:04:12;;;;;;;4.78;2.05;;;;;;;;;;10331548;28;20501;-47
2022/06/27 20:09:14;;;;;;;10.45;2.63;;;;;;;;;;10351945;28;20385;-48
2022/06/27 20:14:15;;;;;;;5.10;1.95;;;;;;;;;;10339767;28;20092;-54
2022/06/27 20:19:18;;;;;;;4.75;2.17;;;;;;;;;;10349281;28;20084;-47
2022/06/27 20:24:19;;;;;;;8.02;2.25;;;;;;;;;;10325844;28;20073;-47
2022/06/27 20:29:19;;;;;;;6.53;2.22;;;;;;;;;;10353021;28;20117;-47
2022/06/27 20:34:21;;;;;;;5.20;2.30;;;;;;;;;;10335826;28;20027;-50
2022/06/27 20:39:21;;;;;;;7.13;2.25;;;;;;;;;;10344914;28;20379;-59
2022/06/27 20:44:22;;;;;;;5.28;1.90;;;;;;;;;;10343986;28;20038;-46
2022/06/27 20:49:22;;;;;;;10.98;2.00;;;;;;;;;;10335957;28;20034;-63
2022/06/27 20:54:24;;;;;;;5.72;1.95;;;;;;;;;;10347946;28;20040;-46
2022/06/27 20:59:25;;;;;;;3.90;2.08;;;;;;;;;;10335537;28;20555;-49
2022/06/27 21:04:26;;;;;;;2.45;1.70;;;;;;;;;;10354079;28;20116;-46
2022/06/27 21:14:46;;;;;;;11.77;3.13;;;;;;;;;;10321440;28;20501;-45
2022/06/27 21:19:46;;;;;;;24.00;4.57;;;;;;;;;;10323504;28;20030;-45
2022/06/27 21:24:47;;;;;;;24.20;3.83;;;;;;;;;;10326346;28;20057;-48
2022/06/27 21:29:48;;;;;;;19.90;3.60;;;;;;;;;;10318684;28;20037;-44
2022/06/27 21:34:48;;;;;;;17.45;2.95;;;;;;;;;;10329934;28;20121;-43
2022/06/27 21:39:49;;;;;;;19.88;3.72;;;;;;;;;;10344529;28;20038;-44
2022/06/27 21:44:50;;;;;;;16.77;3.83;;;;;;;;;;10350365;28;20113;-45
2022/06/27 21:49:50;;;;;;;19.40;3.47;;;;;;;;;;10343930;28;20053;-44
2022/06/27 21:54:51;;;;;;;14.20;4.28;;;;;;;;;;10353780;28;20030;-44
2022/06/27 21:59:51;;;;;;;14.73;3.60;;;;;;;;;;10347743;28;20033;-45
2022/06/27 22:04:52;;;;;;;9.95;3.45;;;;;;;;;;10362626;28;20065;-44
2022/06/27 22:09:53;;;;;;;12.75;3.55;;;;;;;;;;10364134;28;20172;-45
2022/06/27 22:14:54;;;;;;;22.17;3.40;;;;;;;;;;10366362;28;20111;-44
2022/06/27 22:19:54;;;;;;;9.77;3.35;;;;;;;;;;10361839;28;20029;-46
2022/06/27 22:24:55;;;;;;;10.70;2.30;;;;;;;;;;10367958;28;20525;-46
2022/06/27 22:29:55;;;;;;;13.27;2.95;;;;;;;;;;10346837;28;20038;-45
2022/06/27 22:34:56;;;;;;;12.27;2.63;;;;;;;;;;10356679;28;20511;-49
2022/06/27 22:39:57;;;;;;;9.90;3.08;;;;;;;;;;10356251;28;20030;-45
2022/06/27 22:44:58;;;;;;;9.40;3.05;;;;;;;;;;10362103;28;20107;-44
2022/06/27 22:49:58;;;;;;;9.88;2.58;;;;;;;;;;10353063;28;20026;-45
2022/06/27 22:54:59;;;;;;;7.70;2.40;;;;;;;;;;10340046;28;20038;-48
2022/06/27 23:00:00;;;;;;;8.50;2.78;;;;;;;;;;10327414;28;20111;-53
2022/06/27 23:05:01;;;;;;;8.65;2.83;;;;;;;;;;10335924;28;20065;-45
2022/06/27 23:10:04;;;;;;;7.80;2.50;;;;;;;;;;10327124;28;20478;-60
2022/06/27 23:15:07;;;;;;;6.68;2.53;;;;;;;;;;10332456;28;20050;-57
2022/06/27 23:20:11;;;;;;;6.63;2.38;;;;;;;;;;10338706;28;20029;-46
2022/06/27 23:25:12;;;;;;;9.90;2.33;;;;;;;;;;10354245;28;20078;-44
2022/06/27 23:30:13;;;;;;;6.97;2.10;;;;;;;;;;10333323;28;20564;-61
2022/06/27 23:35:14;;;;;;;7.70;2.33;;;;;;;;;;10341374;28;20041;-45
2022/06/27 23:40:14;;;;;;;5.88;2.03;;;;;;;;;;10350350;28;20741;-45
2022/06/27 23:45:15;;;;;;;5.63;1.98;;;;;;;;;;10358111;28;20026;-44
2022/06/27 23:50:16;;;;;;;13.52;2.60;;;;;;;;;;10357809;28;20197;-44
2022/06/27 23:55:16;;;;;;;7.78;2.60;;;;;;;;;;10357085;28;20569;-44
